createdAt,value
2022-11-12T00:01:52.381Z,100815.19
2022-11-12T00:04:40.153Z,100814.06
2022-11-12T00:07:26.455Z,100817.44
2022-11-12T00:10:12.648Z,100814.22
2022-11-12T00:12:59.354Z,100811.56
2022-11-12T00:15:47.419Z,100802.78
2022-11-12T00:18:34.077Z,100795.41
2022-11-12T00:21:22.015Z,100791.44
2022-11-12T00:24:08.463Z,100799.69
2022-11-12T00:26:54.941Z,100805.34
2022-11-12T00:29:41.303Z,100802.69
2022-11-12T00:32:27.781Z,100807.25
2022-11-12T00:35:14.398Z,100812.41
2022-11-12T00:38:02.439Z,100796.50
2022-11-12T00:40:48.845Z,100805.28
2022-11-12T00:43:35.578Z,100798.59
2022-11-12T00:46:22.109Z,100804.84
2022-11-12T00:49:08.377Z,100807.81
2022-11-12T00:51:54.848Z,100802.19
2022-11-12T00:54:42.634Z,100800.47
2022-11-12T00:57:29.045Z,100795.75
2022-11-12T01:00:17.917Z,100801.31
2022-11-12T01:03:04.606Z,100803.34
2022-11-12T01:05:51.180Z,100808.63
2022-11-12T01:08:37.995Z,100802.16
2022-11-12T01:11:27.532Z,100805.63
2022-11-12T01:14:14.641Z,100804.22
2022-11-12T01:17:01.451Z,100790.84
2022-11-12T01:19:51.121Z,100793.94
2022-11-12T01:22:37.803Z,100792.88
2022-11-12T01:25:23.992Z,100800.16
2022-11-12T01:28:11.906Z,100794.56
2022-11-12T01:30:58.020Z,100798.66
2022-11-12T01:33:46.692Z,100801.88
2022-11-12T01:36:34.938Z,100796.25
2022-11-12T01:39:21.401Z,100792.09
2022-11-12T01:42:07.843Z,100788.31
2022-11-12T01:44:55.908Z,100785.59
2022-11-12T01:52:14.041Z,100793.28
2022-11-12T01:55:06.564Z,100784.78
2022-11-12T01:57:58.505Z,100787.75
2022-11-12T02:00:47.054Z,100788.81
2022-11-12T02:03:33.851Z,100788.09
2022-11-12T02:06:21.458Z,100789.50
2022-11-12T02:09:08.408Z,100785.84
2022-11-12T02:11:54.808Z,100774.59
2022-11-12T02:14:40.099Z,100777.03
2022-11-12T02:17:27.542Z,100776.91
2022-11-12T02:20:15.484Z,100775.22
2022-11-12T02:23:03.840Z,100773.75
2022-11-12T02:25:50.028Z,100780.56
2022-11-12T02:28:36.287Z,100773.84
2022-11-12T02:31:22.887Z,100767.72
2022-11-12T02:34:09.051Z,100763.13
2022-11-12T02:36:55.421Z,100760.44
2022-11-12T02:39:43.319Z,100770.13
2022-11-12T02:42:29.608Z,100761.06
2022-11-12T02:45:16.194Z,100764.69
2022-11-12T02:48:02.948Z,100778.56
2022-11-12T02:50:49.144Z,100783.41
2022-11-12T02:53:36.311Z,100777.22
2022-11-12T02:56:24.199Z,100778.63
2022-11-12T02:59:10.228Z,100770.31
2022-11-12T03:01:56.614Z,100776.91
2022-11-12T03:04:48.199Z,100773.16
2022-11-12T03:07:36.078Z,100773.88
2022-11-12T03:10:22.347Z,100769.31
2022-11-12T03:13:10.477Z,100772.50
2022-11-12T03:16:00.891Z,100774.66
2022-11-12T03:18:47.367Z,100777.63
2022-11-12T03:21:34.073Z,100774.59
2022-11-12T03:24:20.753Z,100779.72
2022-11-12T03:27:07.197Z,100770.94
2022-11-12T03:29:54.700Z,100769.00
2022-11-12T03:32:41.222Z,100771.69
2022-11-12T03:35:28.053Z,100774.50
2022-11-12T03:38:14.547Z,100774.81
2022-11-12T03:41:00.688Z,100779.69
2022-11-12T03:43:47.058Z,100772.19
2022-11-12T03:46:35.598Z,100781.13
2022-11-12T03:49:24.269Z,100789.75
2022-11-12T03:52:10.836Z,100784.41
2022-11-12T03:54:57.584Z,100793.69
2022-11-12T03:57:44.267Z,100792.88
2022-11-12T04:00:31.651Z,100791.72
2022-11-12T04:03:19.702Z,100792.88
2022-11-12T04:06:23.898Z,100785.38
2022-11-12T04:09:10.355Z,100788.38
2022-11-12T04:12:16.608Z,100793.56
2022-11-12T04:15:02.736Z,100789.34
2022-11-12T04:18:06.387Z,100795.41
2022-11-12T04:21:20.038Z,100790.31
2022-11-12T04:24:07.142Z,100796.31
2022-11-12T04:26:52.591Z,100798.97
2022-11-12T04:29:56.209Z,100802.06
2022-11-12T04:32:48.248Z,100798.41
2022-11-12T04:35:35.005Z,100805.44
2022-11-12T04:38:22.806Z,100801.41
2022-11-12T04:41:26.992Z,100796.78
2022-11-12T04:44:30.919Z,100789.88
2022-11-12T04:47:17.631Z,100792.97
2022-11-12T04:50:07.186Z,100795.41
2022-11-12T04:52:53.849Z,100788.63
2022-11-12T04:55:41.441Z,100790.13
2022-11-12T04:58:28.261Z,100793.78
2022-11-12T05:01:15.798Z,100800.47
2022-11-12T05:04:02.377Z,100795.19
2022-11-12T05:06:55.020Z,100803.25
2022-11-12T05:09:42.284Z,100809.09
2022-11-12T05:12:30.148Z,100792.16
2022-11-12T05:15:16.584Z,100796.53
2022-11-12T05:18:03.036Z,100794.31
2022-11-12T05:20:52.708Z,100801.84
2022-11-12T05:23:38.948Z,100802.31
2022-11-12T05:26:25.339Z,100798.63
2022-11-12T05:29:12.997Z,100787.47
2022-11-12T05:31:59.420Z,100798.38
2022-11-12T05:34:46.160Z,100790.22
2022-11-12T05:37:32.514Z,100792.34
2022-11-12T05:40:18.954Z,100792.53
2022-11-12T05:43:05.521Z,100791.06
2022-11-12T05:45:52.946Z,100790.69
2022-11-12T05:48:39.409Z,100805.53
2022-11-12T05:51:25.862Z,100803.34
2022-11-12T05:54:12.655Z,100800.81
2022-11-12T05:56:59.109Z,100805.56
2022-11-12T05:59:45.585Z,100808.31
2022-11-12T06:02:33.407Z,100809.25
2022-11-12T06:05:19.693Z,100812.78
2022-11-12T06:08:07.541Z,100809.75
2022-11-12T06:10:55.083Z,100815.28
2022-11-12T06:13:41.413Z,100811.53
2022-11-12T06:16:30.878Z,100807.84
2022-11-12T06:19:18.786Z,100817.06
2022-11-12T06:22:05.205Z,100811.50
2022-11-12T06:24:51.605Z,100821.19
2022-11-12T06:27:38.158Z,100828.84
2022-11-12T06:30:25.792Z,100823.75
2022-11-12T06:33:13.026Z,100817.41
2022-11-12T06:36:03.127Z,100823.06
2022-11-12T06:38:50.126Z,100826.50
2022-11-12T06:41:36.622Z,100831.81
2022-11-12T06:44:23.033Z,100828.94
2022-11-12T06:47:09.786Z,100831.59
2022-11-12T06:49:56.158Z,100831.94
2022-11-12T06:52:43.898Z,100830.66
2022-11-12T06:55:30.174Z,100824.41
2022-11-12T06:58:16.355Z,100834.56
2022-11-12T07:01:12.140Z,100819.63
2022-11-12T07:03:58.773Z,100831.25
2022-11-12T07:06:45.213Z,100830.09
2022-11-12T07:09:32.996Z,100841.16
2022-11-12T07:12:19.457Z,100836.03
2022-11-12T07:15:06.524Z,100840.91
2022-11-12T07:17:53.221Z,100832.97
2022-11-12T07:20:39.513Z,100837.22
2022-11-12T07:23:25.994Z,100827.78
2022-11-12T07:26:15.894Z,100828.13
2022-11-12T07:29:02.405Z,100828.47
2022-11-12T07:31:48.510Z,100820.41
2022-11-12T07:34:34.888Z,100820.50
2022-11-12T07:37:21.418Z,100827.53
2022-11-12T07:40:08.518Z,100829.41
2022-11-12T07:42:56.689Z,100820.69
2022-11-12T07:45:42.998Z,100829.34
2022-11-12T07:48:31.220Z,100830.84
2022-11-12T07:51:20.395Z,100827.97
2022-11-12T07:54:06.640Z,100835.47
2022-11-12T07:56:52.995Z,100824.97
2022-11-12T07:59:45.887Z,100843.88
2022-11-12T08:02:33.067Z,100840.19
2022-11-12T08:05:21.517Z,100831.78
2022-11-12T08:08:08.461Z,100835.50
2022-11-12T08:10:56.549Z,100844.09
2022-11-12T08:13:43.071Z,100836.44
2022-11-12T08:16:31.267Z,100837.50
2022-11-12T08:19:17.769Z,100831.47
2022-11-12T08:22:04.204Z,100833.63
2022-11-12T08:24:50.663Z,100840.47
2022-11-12T08:27:36.899Z,100842.63
2022-11-12T08:30:23.253Z,100842.75
2022-11-12T08:33:11.275Z,100841.47
2022-11-12T08:35:58.598Z,100847.41
2022-11-12T08:38:45.193Z,100834.16
2022-11-12T08:41:31.401Z,100837.47
2022-11-12T08:44:18.791Z,100836.81
2022-11-12T08:47:05.199Z,100839.44
2022-11-12T08:49:52.817Z,100834.25
2022-11-12T08:52:39.193Z,100838.28
2022-11-12T08:55:25.429Z,100838.47
2022-11-12T08:58:11.708Z,100837.84
2022-11-12T09:00:58.793Z,100837.38
2022-11-12T09:03:44.925Z,100839.16
2022-11-12T09:06:32.890Z,100830.00
2022-11-12T09:09:19.223Z,100835.44
2022-11-12T09:12:13.635Z,100834.44
2022-11-12T09:15:35.817Z,100837.69
2022-11-12T09:18:13.330Z,100833.88
2022-11-12T09:21:04.567Z,100828.56
2022-11-12T09:23:53.434Z,100831.50
2022-11-12T09:26:39.972Z,100822.59
2022-11-12T09:29:26.239Z,100826.41
2022-11-12T09:32:12.931Z,100823.72
2022-11-12T09:34:59.178Z,100826.78
2022-11-12T09:37:45.635Z,100823.78
2022-11-12T09:40:46.771Z,100828.88
2022-11-12T09:43:36.088Z,100830.59
2022-11-12T09:46:29.849Z,100827.28
2022-11-12T09:49:20.682Z,100833.56
2022-11-12T09:52:15.362Z,100829.78
2022-11-12T09:55:08.820Z,100824.81
2022-11-12T09:57:57.272Z,100828.41
2022-11-12T10:00:53.733Z,100829.19
2022-11-12T10:03:48.049Z,100825.59
2022-11-12T10:06:40.759Z,100817.31
2022-11-12T10:09:34.175Z,100808.19
2022-11-12T10:12:32.331Z,100810.19
2022-11-12T10:16:01.304Z,100810.19
2022-11-12T10:18:57.707Z,100802.56
2022-11-12T10:21:57.095Z,100799.56
2022-11-12T10:24:45.642Z,100797.53
2022-11-12T10:27:39.738Z,100789.13
2022-11-12T10:30:27.618Z,100790.22
2022-11-12T10:33:16.263Z,100792.13
2022-11-12T10:36:16.088Z,100787.38
2022-11-12T10:39:02.372Z,100784.47
2022-11-12T10:42:03.181Z,100779.03
2022-11-12T10:44:50.015Z,100779.31
2022-11-12T10:47:42.909Z,100776.09
2022-11-12T10:50:33.029Z,100772.50
2022-11-12T10:53:33.021Z,100773.03
2022-11-12T10:56:30.880Z,100775.31
2022-11-12T10:59:20.141Z,100769.69
2022-11-12T11:02:18.176Z,100762.97
2022-11-12T11:05:35.005Z,100763.66
2022-11-12T11:08:36.919Z,100761.47
2022-11-12T11:11:27.426Z,100761.00
2022-11-12T11:14:26.950Z,100755.28
2022-11-12T11:17:18.737Z,100760.28
2022-11-12T11:20:06.316Z,100756.84
2022-11-12T11:22:58.041Z,100748.63
2022-11-12T11:25:44.845Z,100753.97
2022-11-12T11:28:39.018Z,100749.38
2022-11-12T11:31:39.660Z,100744.72
2022-11-12T11:34:39.174Z,100740.00
2022-11-12T11:37:28.948Z,100743.19
2022-11-12T11:40:27.799Z,100743.00
2022-11-12T11:43:28.009Z,100732.94
2022-11-12T11:46:26.861Z,100742.81
2022-11-12T11:49:25.485Z,100731.19
2022-11-12T11:52:25.593Z,100734.19
2022-11-12T11:55:36.122Z,100728.13
2022-11-12T11:58:33.024Z,100735.84
2022-11-12T12:01:26.548Z,100734.34
2022-11-12T12:04:30.522Z,100724.28
2022-11-12T12:07:27.725Z,100723.66
2022-11-12T12:10:30.352Z,100731.06
2022-11-12T12:13:47.636Z,100720.63
2022-11-12T12:16:48.702Z,100716.81
2022-11-12T12:19:54.402Z,100719.47
2022-11-12T12:22:47.880Z,100723.09
2022-11-12T12:25:38.115Z,100724.69
2022-11-12T12:28:34.243Z,100712.09
2022-11-12T12:31:25.334Z,100710.22
2022-11-12T12:34:21.220Z,100707.38
2022-11-12T12:37:14.002Z,100705.41
2022-11-12T12:40:05.648Z,100704.25
2022-11-12T12:42:57.576Z,100703.13
2022-11-12T12:45:45.265Z,100702.38
2022-11-12T12:48:36.431Z,100692.63
2022-11-12T12:51:23.775Z,100688.22
2022-11-12T12:54:45.143Z,100685.53
2022-11-12T12:57:37.775Z,100666.53
2022-11-12T13:00:38.488Z,100667.56
2022-11-12T13:03:43.534Z,100664.47
2022-11-12T13:06:35.833Z,100673.00
2022-11-12T13:09:25.754Z,100673.56
2022-11-12T13:12:24.061Z,100664.34
2022-11-12T13:15:17.653Z,100662.53
2022-11-12T13:18:04.344Z,100664.97
2022-11-12T13:21:09.886Z,100653.78
2022-11-12T13:24:09.320Z,100658.03
2022-11-12T13:26:58.179Z,100650.13
2022-11-12T13:29:46.959Z,100652.47
2022-11-12T13:32:36.481Z,100658.78
2022-11-12T13:35:28.556Z,100654.41
2022-11-12T13:38:16.510Z,100659.56
2022-11-12T13:41:14.803Z,100652.72
2022-11-12T13:44:07.170Z,100654.28
2022-11-12T13:46:56.056Z,100667.22
2022-11-12T13:49:43.770Z,100657.56
2022-11-12T13:52:30.639Z,100652.88
2022-11-12T13:55:19.738Z,100650.91
2022-11-12T13:58:20.514Z,100651.56
2022-11-12T14:01:08.690Z,100653.84
2022-11-12T14:03:55.381Z,100648.31
2022-11-12T14:06:45.440Z,100654.88
2022-11-12T14:09:52.629Z,100652.78
2022-11-12T14:13:03.486Z,100654.19
2022-11-12T14:16:05.214Z,100648.13
2022-11-12T14:19:09.564Z,100648.25
2022-11-12T14:22:03.429Z,100650.75
2022-11-12T14:24:54.109Z,100652.91
2022-11-12T14:27:40.586Z,100653.59
2022-11-12T14:30:29.602Z,100650.97
2022-11-12T14:33:22.205Z,100648.38
2022-11-12T14:36:14.941Z,100651.09
2022-11-12T14:39:01.683Z,100651.59
2022-11-12T14:41:50.837Z,100640.19
2022-11-12T14:44:39.113Z,100639.31
2022-11-12T14:47:25.727Z,100636.59
2022-11-12T14:50:18.657Z,100638.88
2022-11-12T14:53:09.573Z,100634.31
2022-11-12T14:55:57.828Z,100636.34
2022-11-12T14:58:44.452Z,100635.34
2022-11-12T15:02:26.621Z,100622.56
2022-11-12T15:04:43.335Z,100622.66
2022-11-12T15:07:32.277Z,100614.22
2022-11-12T15:10:33.964Z,100618.34
2022-11-12T15:13:22.938Z,100615.88
2022-11-12T15:16:11.557Z,100612.72
2022-11-12T15:19:08.183Z,100614.75
2022-11-12T15:21:56.669Z,100605.31
2022-11-12T15:24:45.996Z,100605.16
2022-11-12T15:27:38.198Z,100599.19
2022-11-12T15:30:26.179Z,100592.09
2022-11-12T15:33:19.503Z,100598.72
2022-11-12T15:36:06.110Z,100596.16
2022-11-12T15:38:55.232Z,100594.31
2022-11-12T15:41:43.000Z,100597.31
2022-11-12T15:44:35.529Z,100594.69
2022-11-12T15:47:23.642Z,100594.09
2022-11-12T15:50:16.968Z,100588.63
2022-11-12T15:53:03.229Z,100582.59
2022-11-12T15:55:50.904Z,100574.41
2022-11-12T15:58:40.478Z,100579.78
2022-11-12T16:01:27.125Z,100577.69
2022-11-12T16:04:14.621Z,100569.22
2022-11-12T16:07:07.095Z,100581.53
2022-11-12T16:09:54.224Z,100564.72
2022-11-12T16:12:41.156Z,100569.41
2022-11-12T16:15:29.277Z,100565.03
2022-11-12T16:18:15.763Z,100572.13
2022-11-12T16:21:02.152Z,100557.53
2022-11-12T16:23:48.478Z,100561.66
2022-11-12T16:26:35.672Z,100559.69
2022-11-12T16:29:22.176Z,100552.03
2022-11-12T16:32:13.974Z,100546.69
2022-11-12T16:35:01.401Z,100547.75
2022-11-12T16:37:56.952Z,100557.25
2022-11-12T16:40:45.397Z,100545.72
2022-11-12T16:43:33.211Z,100538.69
2022-11-12T16:46:26.387Z,100547.13
2022-11-12T16:49:21.297Z,100542.53
2022-11-12T16:52:10.588Z,100542.91
2022-11-12T16:55:01.534Z,100546.91
2022-11-12T16:57:51.067Z,100545.75
2022-11-12T17:00:37.346Z,100540.63
2022-11-12T17:03:23.682Z,100547.75
2022-11-12T17:06:14.274Z,100545.69
2022-11-12T17:09:04.171Z,100542.91
2022-11-12T17:11:50.776Z,100539.63
2022-11-12T17:14:37.206Z,100536.75
2022-11-12T17:17:24.486Z,100536.06
2022-11-12T17:20:11.475Z,100540.88
2022-11-12T17:22:59.430Z,100537.78
2022-11-12T17:25:45.675Z,100544.28
2022-11-12T17:28:32.434Z,100552.78
2022-11-12T17:31:21.693Z,100553.03
2022-11-12T17:34:08.015Z,100548.16
2022-11-12T17:36:54.328Z,100553.25
2022-11-12T17:39:44.414Z,100546.75
2022-11-12T17:42:30.967Z,100539.91
2022-11-12T17:45:17.542Z,100538.88
2022-11-12T17:48:04.062Z,100535.22
2022-11-12T17:50:51.093Z,100537.44
2022-11-12T17:53:37.708Z,100538.22
2022-11-12T17:56:25.773Z,100531.59
2022-11-12T17:59:12.320Z,100532.19
2022-11-12T18:01:58.810Z,100532.16
2022-11-12T18:04:45.398Z,100532.72
2022-11-12T18:07:32.007Z,100541.81
2022-11-12T18:10:19.680Z,100532.94
2022-11-12T18:13:07.927Z,100531.41
2022-11-12T18:15:54.210Z,100531.94
2022-11-12T18:18:41.083Z,100522.94
2022-11-12T18:21:28.243Z,100525.16
2022-11-12T18:24:16.254Z,100522.31
2022-11-12T18:27:03.589Z,100523.25
2022-11-12T18:29:51.565Z,100517.13
2022-11-12T18:32:39.302Z,100513.56
2022-11-12T18:35:29.617Z,100520.84
2022-11-12T18:38:16.543Z,100519.91
2022-11-12T18:41:04.921Z,100520.28
2022-11-12T18:43:51.605Z,100519.56
2022-11-12T18:46:39.400Z,100528.88
2022-11-12T18:49:25.666Z,100528.94
2022-11-12T18:52:12.539Z,100523.00
2022-11-12T18:54:59.081Z,100518.56
2022-11-12T18:57:45.594Z,100519.78
2022-11-12T19:00:32.445Z,100522.97
2022-11-12T19:03:20.703Z,100516.06
2022-11-12T19:06:08.286Z,100514.66
2022-11-12T19:08:59.748Z,100511.50
2022-11-12T19:11:46.403Z,100514.91
2022-11-12T19:14:32.902Z,100504.63
2022-11-12T19:17:19.376Z,100519.63
2022-11-12T19:20:09.067Z,100509.25
2022-11-12T19:22:55.521Z,100503.09
2022-11-12T19:25:41.602Z,100493.53
2022-11-12T19:28:28.507Z,100489.75
2022-11-12T19:31:17.518Z,100484.75
2022-11-12T19:34:03.673Z,100497.88
2022-11-12T19:37:11.903Z,100494.16
2022-11-12T19:39:58.600Z,100491.34
2022-11-12T19:42:47.653Z,100477.34
2022-11-12T19:45:34.718Z,100476.50
2022-11-12T19:48:21.112Z,100476.81
2022-11-12T19:51:09.851Z,100474.31
2022-11-12T19:53:57.469Z,100470.78
2022-11-12T19:56:43.900Z,100457.25
2022-11-12T19:59:30.276Z,100473.22
2022-11-12T20:02:16.598Z,100478.63
2022-11-12T20:05:03.859Z,100481.06
2022-11-12T20:07:50.628Z,100477.53
2022-11-12T20:10:38.450Z,100476.94
2022-11-12T20:13:24.642Z,100473.81
2022-11-12T20:16:14.236Z,100474.66
2022-11-12T20:19:01.513Z,100482.88
2022-11-12T20:21:48.114Z,100476.03
2022-11-12T20:24:34.406Z,100467.00
2022-11-12T20:27:22.209Z,100471.31
2022-11-12T20:30:10.006Z,100477.50
2022-11-12T20:32:56.338Z,100465.44
2022-11-12T20:35:42.938Z,100463.25
2022-11-12T20:38:29.592Z,100466.00
2022-11-12T20:41:18.464Z,100482.50
2022-11-12T20:44:06.503Z,100473.88
2022-11-12T20:46:52.664Z,100470.41
2022-11-12T20:49:39.551Z,100469.91
2022-11-12T20:52:26.020Z,100475.41
2022-11-12T20:55:12.275Z,100468.78
2022-11-12T20:57:58.839Z,100465.63
2022-11-12T21:00:46.372Z,100467.03
2022-11-12T21:03:33.841Z,100455.91
2022-11-12T21:06:22.933Z,100460.28
2022-11-12T21:09:09.166Z,100461.16
2022-11-12T21:11:55.734Z,100462.25
2022-11-12T21:14:46.012Z,100451.38
2022-11-12T21:17:36.850Z,100447.63
2022-11-12T21:20:23.180Z,100440.84
2022-11-12T21:23:09.504Z,100442.88
2022-11-12T21:25:56.238Z,100434.50
2022-11-12T21:28:44.106Z,100447.19
2022-11-12T21:31:31.391Z,100447.44
2022-11-12T21:34:19.433Z,100437.25
2022-11-12T21:37:05.958Z,100435.88
2022-11-12T21:39:52.779Z,100425.13
2022-11-12T21:42:42.811Z,100432.53
2022-11-12T21:45:29.241Z,100430.94
2022-11-12T21:48:15.617Z,100422.19
2022-11-12T21:51:05.660Z,100432.66
2022-11-12T21:53:55.851Z,100419.34
2022-11-12T21:56:42.252Z,100427.97
2022-11-12T21:59:28.730Z,100430.47
2022-11-12T22:02:15.255Z,100428.53
2022-11-12T22:05:01.829Z,100426.75
2022-11-12T22:07:51.423Z,100431.75
2022-11-12T22:10:38.081Z,100414.06
2022-11-12T22:13:27.160Z,100424.78
2022-11-12T22:16:16.466Z,100419.25
2022-11-12T22:19:02.883Z,100418.63
2022-11-12T22:21:49.014Z,100407.44
2022-11-12T22:24:36.840Z,100412.25
2022-11-12T22:27:23.708Z,100420.63
2022-11-12T22:30:11.520Z,100412.78
2022-11-12T22:32:57.737Z,100408.16
2022-11-12T22:35:44.117Z,100407.63
2022-11-12T22:38:34.651Z,100404.78
2022-11-12T22:41:23.180Z,100392.47
2022-11-12T22:44:09.647Z,100400.31
2022-11-12T22:46:56.025Z,100400.97
2022-11-12T22:49:42.483Z,100408.19
2022-11-12T22:52:28.791Z,100406.38
2022-11-12T22:55:15.574Z,100406.03
2022-11-12T22:58:03.319Z,100401.94
2022-11-12T23:00:50.189Z,100395.59
2022-11-12T23:03:37.146Z,100400.97
2022-11-12T23:06:24.696Z,100392.38
2022-11-12T23:09:16.026Z,100389.91
2022-11-12T23:12:02.638Z,100399.63
2022-11-12T23:14:51.131Z,100386.31
2022-11-12T23:17:37.358Z,100389.06
2022-11-12T23:20:23.989Z,100387.28
2022-11-12T23:23:10.595Z,100378.03
2022-11-12T23:26:02.794Z,100385.84
2022-11-12T23:28:50.215Z,100382.31
2022-11-12T23:31:38.241Z,100380.41
2022-11-12T23:34:24.475Z,100375.97
2022-11-12T23:37:10.815Z,100373.56
2022-11-12T23:39:57.368Z,100374.63
2022-11-12T23:42:43.888Z,100365.03
2022-11-12T23:45:30.189Z,100359.94
2022-11-12T23:48:18.081Z,100356.06
2022-11-12T23:51:05.976Z,100351.03
2022-11-12T23:53:52.436Z,100345.56
2022-11-12T23:56:38.652Z,100341.00
2022-11-12T23:59:25.163Z,100345.22
